Time;durP1;ratioP1;P1;durP2;ratioP2;P2;SDS_P1;SDS_P2;PMS_P1;PMS_P2;Temp;Humidity;BMP_temperature;BMP_pressure;BME280_temperature;BME280_humidity;BME280_pressure;Samples;Min_cycle;Max_cycle;Signal;HPM_P1;HPM_P2
2021/08/27 00:01:21;;;;;;;2.30;0.80;;;19.50;77.40;;;;;;5038536;28;20517;-69
2021/08/27 00:03:46;;;;;;;3.33;0.60;;;19.50;77.40;;;;;;5034102;28;20079;-68
2021/08/27 00:06:12;;;;;;;4.65;0.80;;;19.50;77.50;;;;;;5027650;28;20399;-68
2021/08/27 00:08:37;;;;;;;3.35;0.82;;;19.40;77.40;;;;;;5032681;28;20040;-69
2021/08/27 00:11:03;;;;;;;2.88;0.75;;;19.40;77.40;;;;;;5047135;28;20037;-69
2021/08/27 00:13:29;;;;;;;2.13;0.70;;;19.40;77.50;;;;;;5042552;28;20029;-67
2021/08/27 00:15:54;;;;;;;3.38;0.82;;;19.40;77.50;;;;;;5025867;28;20051;-68
2021/08/27 00:18:20;;;;;;;3.40;0.75;;;19.40;77.40;;;;;;5034970;28;20025;-68
2021/08/27 00:20:46;;;;;;;2.55;0.70;;;19.40;77.50;;;;;;5026370;28;20041;-68
2021/08/27 00:23:11;;;;;;;2.67;0.90;;;19.40;77.60;;;;;;5025598;28;20033;-67
2021/08/27 00:25:37;;;;;;;2.40;0.70;;;19.40;77.60;;;;;;5035845;28;20025;-68
2021/08/27 00:28:05;;;;;;;2.85;0.82;;;19.40;77.60;;;;;;5041043;28;20831;-69
2021/08/27 00:30:31;;;;;;;2.67;0.75;;;19.40;77.60;;;;;;5037444;28;20026;-69
2021/08/27 00:32:57;;;;;;;3.88;0.88;;;19.40;78.20;;;;;;5033711;28;20483;-68
2021/08/27 00:35:22;;;;;;;3.67;0.80;;;19.40;77.70;;;;;;5047009;28;20037;-68
2021/08/27 00:37:48;;;;;;;3.28;0.90;;;19.40;77.70;;;;;;5038091;28;20036;-68
2021/08/27 00:40:14;;;;;;;2.13;0.70;;;19.40;77.70;;;;;;5026722;28;20969;-68
2021/08/27 00:42:40;;;;;;;3.67;1.13;;;19.40;77.70;;;;;;5031382;28;20562;-68
2021/08/27 00:45:06;;;;;;;2.20;0.60;;;19.40;77.80;;;;;;5044586;28;20098;-70
2021/08/27 00:47:32;;;;;;;2.42;0.70;;;19.40;77.90;;;;;;5038519;28;20034;-68
2021/08/27 00:49:58;;;;;;;3.17;0.90;;;19.30;77.90;;;;;;5026444;28;20033;-69
2021/08/27 00:52:23;;;;;;;4.25;0.75;;;19.30;78.00;;;;;;5035578;28;20245;-68
2021/08/27 00:54:51;;;;;;;3.67;0.70;;;19.30;77.90;;;;;;5044572;28;20082;-68
2021/08/27 00:57:17;;;;;;;3.13;0.93;;;19.30;78.00;;;;;;5035599;28;20065;-68
2021/08/27 00:59:43;;;;;;;4.18;0.85;;;19.30;78.00;;;;;;5046202;28;20469;-68
2021/08/27 01:02:08;;;;;;;4.22;0.75;;;19.40;78.10;;;;;;5029564;28;20402;-69
2021/08/27 01:04:39;;;;;;;2.28;0.88;;;19.30;78.10;;;;;;5037055;28;20034;-69
2021/08/27 01:07:46;;;;;;;1.77;0.70;;;19.30;78.10;;;;;;5026376;28;20025;-69
2021/08/27 01:10:31;;;;;;;2.90;0.90;;;19.30;78.10;;;;;;5016511;28;20029;-69
2021/08/27 01:13:16;;;;;;;3.78;1.00;;;19.30;78.20;;;;;;5035998;28;20056;-68
2021/08/27 01:15:57;;;;;;;8.48;1.23;;;19.30;78.20;;;;;;5044421;28;20041;-69
2021/08/27 01:18:38;;;;;;;1.70;0.57;;;19.30;78.20;;;;;;5041709;28;20037;-67
2021/08/27 01:21:09;;;;;;;2.53;0.70;;;19.20;78.20;;;;;;5025462;28;20034;-69
2021/08/27 01:23:48;;;;;;;2.35;0.90;;;19.20;78.20;;;;;;5035945;28;20426;-67
2021/08/27 01:26:18;;;;;;;4.15;0.95;;;19.20;78.40;;;;;;5034347;28;20033;-69
2021/08/27 01:28:49;;;;;;;2.70;1.02;;;19.20;78.40;;;;;;5037129;28;20526;-68
2021/08/27 01:31:23;;;;;;;3.58;0.70;;;19.20;78.30;;;;;;5039878;28;20449;-67
2021/08/27 01:34:16;;;;;;;4.07;1.10;;;19.20;78.40;;;;;;5042647;28;20150;-68
2021/08/27 01:36:44;;;;;;;3.95;0.90;;;19.20;78.40;;;;;;5033300;28;20036;-69
2021/08/27 01:39:13;;;;;;;4.18;0.90;;;19.20;78.40;;;;;;5039155;28;20028;-67
2021/08/27 01:41:40;;;;;;;3.05;0.80;;;19.20;78.50;;;;;;5026513;28;20470;-68
2021/08/27 01:44:10;;;;;;;2.80;0.77;;;19.20;78.50;;;;;;5029163;28;20041;-69
2021/08/27 01:46:38;;;;;;;4.85;1.15;;;19.20;79.00;;;;;;5025826;28;20029;-68
2021/08/27 01:49:06;;;;;;;3.15;0.75;;;19.20;78.50;;;;;;5036733;28;20095;-68
2021/08/27 01:51:35;;;;;;;3.20;0.90;;;19.20;78.50;;;;;;5043733;28;20024;-66
2021/08/27 01:54:03;;;;;;;2.83;0.70;;;19.20;78.60;;;;;;5030923;28;20036;-66
2021/08/27 01:56:30;;;;;;;2.28;0.88;;;19.20;78.60;;;;;;5030511;28;20079;-69
2021/08/27 01:58:58;;;;;;;3.72;0.90;;;19.20;78.60;;;;;;5038713;28;20025;-68
2021/08/27 02:01:26;;;;;;;4.40;1.20;;;19.20;78.60;;;;;;5035732;28;20032;-68
2021/08/27 02:03:56;;;;;;;4.45;0.98;;;19.20;78.60;;;;;;5030067;28;20120;-70
2021/08/27 02:06:23;;;;;;;2.78;0.98;;;19.20;78.70;;;;;;5024181;28;20026;-71
2021/08/27 02:08:53;;;;;;;2.67;0.80;;;19.20;78.80;;;;;;5030678;28;20108;-67
2021/08/27 02:11:19;;;;;;;2.97;0.80;;;19.20;78.70;;;;;;5025370;28;20034;-67
2021/08/27 02:13:46;;;;;;;3.17;1.00;;;19.20;78.90;;;;;;5025247;28;20063;-67
2021/08/27 02:16:14;;;;;;;4.15;0.70;;;19.20;78.80;;;;;;5024062;28;20060;-69
2021/08/27 02:18:40;;;;;;;4.20;0.90;;;19.20;78.80;;;;;;5025063;28;20033;-68
2021/08/27 02:21:07;;;;;;;2.80;0.90;;;19.20;78.90;;;;;;5024654;28;20151;-71
2021/08/27 02:23:35;;;;;;;3.25;1.00;;;19.20;78.90;;;;;;5025217;28;20088;-69
2021/08/27 02:26:02;;;;;;;4.35;1.13;;;19.10;78.80;;;;;;5024329;28;20053;-70
2021/08/27 02:28:28;;;;;;;3.35;0.73;;;19.10;78.80;;;;;;5025277;28;20025;-68
2021/08/27 02:30:56;;;;;;;3.85;0.90;;;19.10;78.90;;;;;;5026863;28;20033;-68
2021/08/27 02:33:25;;;;;;;3.88;1.00;;;19.20;78.90;;;;;;5029133;28;20514;-68
2021/08/27 02:35:50;;;;;;;3.15;0.75;;;19.10;78.80;;;;;;5029355;28;20452;-69
2021/08/27 02:38:22;;;;;;;2.88;0.93;;;19.10;78.90;;;;;;5029536;28;20034;-67
2021/08/27 02:40:48;;;;;;;4.38;1.15;;;19.10;78.90;;;;;;5028926;28;20121;-70
2021/08/27 02:43:14;;;;;;;2.67;0.70;;;19.10;79.00;;;;;;5027674;28;20128;-68
2021/08/27 02:45:39;;;;;;;3.63;0.70;;;19.10;79.00;;;;;;5027733;28;20538;-67
2021/08/27 02:48:05;;;;;;;4.22;1.17;;;19.10;79.00;;;;;;5029182;28;20140;-68
2021/08/27 02:50:39;;;;;;;3.05;0.82;;;19.10;79.00;;;;;;5028616;28;20037;-69
2021/08/27 02:53:13;;;;;;;2.85;0.80;;;19.10;79.20;;;;;;5027493;28;20116;-69
2021/08/27 02:55:44;;;;;;;3.28;0.80;;;19.10;79.20;;;;;;5027879;28;20025;-68
2021/08/27 02:58:16;;;;;;;2.33;0.73;;;19.10;79.20;;;;;;5029817;28;20525;-69
2021/08/27 03:00:54;;;;;;;2.92;0.75;;;19.10;79.20;;;;;;5044705;28;20259;-68
2021/08/27 03:03:23;;;;;;;3.85;1.00;;;19.10;79.20;;;;;;5047223;28;20033;-69
2021/08/27 03:05:51;;;;;;;2.95;0.80;;;19.10;79.20;;;;;;5048746;28;20025;-68
2021/08/27 03:08:23;;;;;;;4.60;1.10;;;19.00;79.20;;;;;;5048582;28;20035;-71
2021/08/27 03:11:06;;;;;;;3.03;0.88;;;19.10;79.20;;;;;;5047289;28;20473;-68
2021/08/27 03:13:43;;;;;;;3.13;0.82;;;19.00;79.20;;;;;;5048699;28;20044;-71
2021/08/27 03:16:11;;;;;;;2.83;0.93;;;19.00;79.70;;;;;;5048678;28;20104;-70
2021/08/27 03:18:49;;;;;;;2.13;0.80;;;19.00;79.20;;;;;;5048414;28;20430;-69
2021/08/27 03:21:16;;;;;;;3.33;1.00;;;19.00;79.20;;;;;;5048052;28;20029;-68
2021/08/27 03:23:44;;;;;;;2.17;0.70;;;19.00;79.20;;;;;;5047141;28;20028;-68
2021/08/27 03:26:16;;;;;;;1.73;0.65;;;19.00;79.20;;;;;;5048325;28;20025;-68
2021/08/27 03:28:47;;;;;;;3.17;0.90;;;19.20;79.40;;;;;;5048305;28;20024;-68
2021/08/27 03:31:13;;;;;;;4.65;0.90;;;19.00;79.20;;;;;;5048041;28;20499;-68
2021/08/27 03:33:39;;;;;;;3.63;0.90;;;19.00;79.20;;;;;;5046981;28;20032;-68
2021/08/27 03:36:05;;;;;;;1.65;0.80;;;19.00;79.30;;;;;;5046654;28;20628;-69
2021/08/27 03:38:31;;;;;;;3.35;0.85;;;19.00;79.30;;;;;;5048128;28;20071;-68
2021/08/27 03:40:57;;;;;;;3.88;1.10;;;19.00;79.30;;;;;;5046219;28;20379;-68
2021/08/27 03:43:25;;;;;;;1.45;0.60;;;19.00;79.30;;;;;;5046943;28;20021;-68
2021/08/27 03:45:54;;;;;;;3.10;0.90;;;19.00;79.40;;;;;;5046375;28;20032;-68
2021/08/27 03:48:21;;;;;;;2.28;0.90;;;19.00;79.40;;;;;;5046325;28;20017;-68
2021/08/27 03:50:53;;;;;;;2.55;0.70;;;19.00;79.40;;;;;;5047657;28;20047;-68
2021/08/27 03:53:19;;;;;;;2.20;0.73;;;19.00;79.30;;;;;;5047500;28;20025;-71
2021/08/27 03:55:51;;;;;;;3.05;0.90;;;19.00;79.40;;;;;;5047959;28;20040;-68
2021/08/27 03:58:20;;;;;;;2.42;0.80;;;19.00;79.40;;;;;;5047825;28;20041;-69
2021/08/27 04:00:46;;;;;;;3.65;0.88;;;19.00;79.40;;;;;;5047412;28;20029;-68
2021/08/27 04:03:12;;;;;;;3.85;0.88;;;19.00;79.50;;;;;;5047476;28;20074;-67
2021/08/27 04:05:38;;;;;;;2.15;0.70;;;19.00;79.50;;;;;;5047532;28;20025;-68
2021/08/27 04:08:03;;;;;;;3.90;1.10;;;19.00;79.50;;;;;;5047450;28;20488;-69
2021/08/27 04:10:29;;;;;;;4.13;0.95;;;19.00;79.50;;;;;;5045647;28;20055;-68
2021/08/27 04:12:54;;;;;;;2.83;0.95;;;19.00;79.60;;;;;;5047393;28;20395;-68
2021/08/27 04:15:23;;;;;;;2.10;0.70;;;19.00;79.60;;;;;;5045970;28;20040;-68
2021/08/27 04:17:49;;;;;;;2.38;0.98;;;19.00;79.70;;;;;;5035253;28;20062;-68
2021/08/27 04:20:15;;;;;;;2.60;0.82;;;19.00;79.60;;;;;;5030874;28;20057;-68
2021/08/27 04:22:41;;;;;;;2.60;0.80;;;19.00;79.70;;;;;;5027469;28;20076;-68
2021/08/27 04:25:07;;;;;;;2.78;0.80;;;19.00;79.70;;;;;;5028011;28;20049;-68
2021/08/27 04:27:32;;;;;;;2.60;0.80;;;19.00;79.80;;;;;;5038436;28;20036;-68
2021/08/27 04:29:58;;;;;;;1.55;0.80;;;19.00;80.00;;;;;;5036471;28;20383;-68
2021/08/27 04:32:23;;;;;;;2.78;0.80;;;19.00;80.00;;;;;;5032718;28;20502;-69
2021/08/27 04:34:49;;;;;;;2.10;0.73;;;19.00;80.60;;;;;;5039811;28;20032;-71
2021/08/27 04:37:15;;;;;;;2.45;0.80;;;19.00;80.20;;;;;;5028609;28;20029;-70
2021/08/27 04:39:41;;;;;;;3.65;0.90;;;19.00;80.30;;;;;;5028538;28;20039;-71
2021/08/27 04:42:06;;;;;;;2.65;0.70;;;19.00;80.40;;;;;;5044915;28;20036;-69
2021/08/27 04:44:32;;;;;;;1.83;0.70;;;19.00;80.50;;;;;;5046580;28;20029;-70
2021/08/27 04:46:57;;;;;;;2.97;0.80;;;19.00;80.50;;;;;;5040414;28;20028;-67
2021/08/27 04:49:23;;;;;;;3.53;0.90;;;19.00;80.50;;;;;;5037855;28;20409;-66
2021/08/27 04:51:49;;;;;;;2.95;1.02;;;19.00;80.60;;;;;;5036734;28;20037;-66
2021/08/27 04:54:15;;;;;;;1.65;0.60;;;19.00;80.70;;;;;;5033810;28;20087;-69
2021/08/27 04:56:40;;;;;;;1.70;0.70;;;19.00;80.80;;;;;;5036661;28;20067;-66
2021/08/27 04:59:06;;;;;;;2.70;1.00;;;19.00;80.70;;;;;;5032393;28;20182;-66
2021/08/27 05:01:31;;;;;;;8.10;2.13;;;19.00;80.80;;;;;;5045869;28;20032;-65
2021/08/27 05:03:57;;;;;;;5.10;1.83;;;19.00;81.00;;;;;;5046192;28;20033;-66
2021/08/27 05:06:23;;;;;;;6.53;1.60;;;19.00;81.20;;;;;;5063188;28;20027;-66
2021/08/27 05:08:49;;;;;;;6.70;1.50;;;19.00;81.30;;;;;;5043033;28;20514;-66
2021/08/27 05:11:14;;;;;;;5.38;1.55;;;19.00;81.40;;;;;;5033459;28;20026;-66
2021/08/27 05:13:40;;;;;;;6.68;1.20;;;19.00;81.30;;;;;;5032418;28;20029;-65
2021/08/27 05:16:05;;;;;;;7.05;1.70;;;19.00;81.20;;;;;;5040551;28;20021;-66
2021/08/27 05:18:31;;;;;;;22.40;1.60;;;19.10;80.60;;;;;;5040210;28;20060;-68
2021/08/27 05:20:57;;;;;;;12.02;1.67;;;19.10;81.10;;;;;;5038212;28;20522;-64
2021/08/27 05:23:23;;;;;;;8.18;1.60;;;19.10;81.20;;;;;;5036425;28;20530;-70
2021/08/27 05:25:49;;;;;;;12.95;1.60;;;19.10;81.10;;;;;;5030565;28;20033;-66
2021/08/27 05:28:15;;;;;;;8.48;1.70;;;19.20;81.80;;;;;;5027888;28;20036;-65
2021/08/27 05:30:41;;;;;;;11.60;1.92;;;19.10;80.90;;;;;;5036211;28;20025;-65
2021/08/27 05:33:07;;;;;;;9.95;1.60;;;19.20;80.80;;;;;;5036815;28;20021;-65
2021/08/27 05:35:32;;;;;;;11.98;1.70;;;19.20;80.30;;;;;;5046257;28;20048;-65
2021/08/27 05:37:58;;;;;;;8.65;1.30;;;19.10;80.40;;;;;;5044634;28;20100;-63
2021/08/27 05:40:23;;;;;;;8.65;1.77;;;19.10;80.50;;;;;;5045828;28;20037;-64
2021/08/27 05:42:49;;;;;;;9.55;1.33;;;19.20;80.70;;;;;;5046128;28;20033;-64
2021/08/27 05:45:15;;;;;;;5.20;1.50;;;19.20;80.80;;;;;;5046012;28;20033;-64
2021/08/27 05:47:42;;;;;;;8.77;1.45;;;19.20;80.80;;;;;;5043732;28;20499;-66
2021/08/27 05:50:10;;;;;;;7.78;1.45;;;19.20;80.70;;;;;;5035214;28;20021;-64
2021/08/27 05:52:36;;;;;;;5.30;1.50;;;19.10;80.60;;;;;;5035734;28;20032;-64
2021/08/27 05:55:03;;;;;;;22.17;2.83;;;19.20;80.70;;;;;;5035216;28;20383;-66
2021/08/27 05:57:28;;;;;;;19.45;2.35;;;19.20;80.80;;;;;;5039277;28;20047;-67
2021/08/27 05:59:54;;;;;;;11.88;2.25;;;19.20;80.90;;;;;;5044083;28;20037;-64
2021/08/27 06:02:20;;;;;;;9.70;1.73;;;19.20;81.00;;;;;;5044016;28;20060;-65
2021/08/27 06:04:45;;;;;;;7.50;1.65;;;19.20;81.10;;;;;;5043826;28;20025;-66
2021/08/27 06:07:11;;;;;;;5.60;1.55;;;19.20;81.10;;;;;;5043776;28;20053;-68
2021/08/27 06:09:36;;;;;;;7.70;1.50;;;19.20;81.10;;;;;;5045587;28;20480;-65
2021/08/27 06:12:02;;;;;;;5.35;1.48;;;19.20;81.10;;;;;;5044889;28;20036;-68
2021/08/27 06:14:28;;;;;;;5.65;1.00;;;19.20;81.10;;;;;;5045429;28;20505;-66
2021/08/27 06:16:53;;;;;;;5.35;1.27;;;19.20;81.10;;;;;;5045490;28;20040;-65
2021/08/27 06:19:19;;;;;;;3.97;1.23;;;19.20;81.00;;;;;;5034071;28;20140;-67
2021/08/27 06:21:44;;;;;;;5.25;1.35;;;19.20;81.00;;;;;;5024536;28;20112;-68
2021/08/27 06:24:10;;;;;;;7.63;1.67;;;19.20;81.10;;;;;;5024684;28;20037;-67
2021/08/27 06:26:35;;;;;;;8.77;1.27;;;19.20;81.30;;;;;;5025316;28;20029;-65
2021/08/27 06:29:03;;;;;;;6.65;1.58;;;19.20;81.40;;;;;;5024108;28;20032;-66
2021/08/27 06:31:29;;;;;;;9.57;1.48;;;19.20;81.50;;;;;;5024548;28;20064;-64
2021/08/27 06:33:55;;;;;;;7.60;1.70;;;19.20;81.50;;;;;;5024036;28;20125;-65
2021/08/27 06:36:20;;;;;;;6.57;1.17;;;19.20;81.70;;;;;;5024987;28;20132;-65
2021/08/27 06:38:46;;;;;;;3.75;1.13;;;19.20;81.60;;;;;;5023498;28;20059;-65
2021/08/27 06:41:12;;;;;;;4.65;1.20;;;19.20;81.60;;;;;;5025796;28;20040;-64
2021/08/27 06:43:42;;;;;;;5.30;1.17;;;19.20;81.40;;;;;;5038047;28;20090;-64
2021/08/27 06:46:12;;;;;;;4.80;1.58;;;19.20;81.70;;;;;;5037549;28;20021;-66
2021/08/27 06:48:37;;;;;;;6.00;1.63;;;19.20;81.70;;;;;;5043854;28;20041;-67
2021/08/27 06:51:03;;;;;;;6.80;1.50;;;19.20;81.60;;;;;;5043005;28;20047;-66
2021/08/27 06:53:29;;;;;;;5.82;1.20;;;19.20;81.50;;;;;;5043807;28;20712;-65
2021/08/27 06:55:55;;;;;;;6.18;1.48;;;19.20;81.30;;;;;;5043150;28;20029;-65
2021/08/27 06:58:21;;;;;;;4.57;1.20;;;19.20;81.20;;;;;;5044813;28;20103;-67
2021/08/27 07:00:46;;;;;;;4.80;1.27;;;19.20;81.10;;;;;;5044469;28;20490;-66
2021/08/27 07:03:12;;;;;;;5.57;1.10;;;19.20;81.00;;;;;;5044577;28;20483;-66
2021/08/27 07:05:37;;;;;;;4.43;1.27;;;19.20;81.50;;;;;;5044100;28;20029;-65
2021/08/27 07:08:03;;;;;;;9.13;1.58;;;19.20;80.90;;;;;;5044756;28;20017;-65
2021/08/27 07:10:29;;;;;;;5.93;1.35;;;19.20;80.80;;;;;;5042874;28;20472;-65
2021/08/27 07:12:56;;;;;;;4.13;1.02;;;19.20;80.70;;;;;;5045008;28;20104;-65
2021/08/27 07:15:22;;;;;;;5.20;1.10;;;19.20;80.60;;;;;;5044353;28;20104;-66
2021/08/27 07:17:48;;;;;;;4.13;1.10;;;19.20;80.50;;;;;;5044690;28;20037;-68
2021/08/27 07:20:14;;;;;;;4.63;0.93;;;19.20;80.40;;;;;;5046189;28;20025;-65
2021/08/27 07:22:41;;;;;;;4.05;1.08;;;19.20;80.40;;;;;;5046547;28;20036;-65
2021/08/27 07:25:07;;;;;;;7.03;1.40;;;19.20;80.30;;;;;;5048023;28;20078;-65
2021/08/27 07:27:33;;;;;;;5.90;1.10;;;19.20;80.20;;;;;;5047728;28;20029;-65
2021/08/27 07:29:58;;;;;;;4.68;1.40;;;19.30;80.10;;;;;;5048013;28;20017;-67
2021/08/27 07:32:24;;;;;;;4.13;1.27;;;19.30;80.00;;;;;;5041415;28;20128;-66
2021/08/27 07:34:50;;;;;;;4.55;1.08;;;19.20;79.90;;;;;;5041392;28;20025;-66
2021/08/27 07:37:16;;;;;;;8.13;1.20;;;19.30;79.90;;;;;;5046613;28;20499;-65
2021/08/27 07:39:41;;;;;;;6.63;1.67;;;19.30;79.80;;;;;;5037463;28;20095;-63
2021/08/27 07:42:08;;;;;;;6.57;1.20;;;19.20;79.50;;;;;;5027429;28;20084;-67
2021/08/27 07:44:34;;;;;;;4.90;1.30;;;19.30;79.70;;;;;;5028283;28;20116;-67
2021/08/27 07:47:00;;;;;;;6.38;1.15;;;19.30;79.60;;;;;;5028126;28;20104;-65
2021/08/27 07:49:25;;;;;;;6.50;1.40;;;19.30;79.60;;;;;;5026640;28;20491;-65
2021/08/27 07:51:53;;;;;;;4.93;1.13;;;19.30;79.50;;;;;;5027982;28;20029;-65
2021/08/27 07:54:19;;;;;;;4.15;1.17;;;19.30;79.40;;;;;;5038872;28;20136;-66
2021/08/27 07:56:44;;;;;;;3.20;0.98;;;19.30;79.30;;;;;;5048313;28;20112;-65
2021/08/27 07:59:10;;;;;;;3.55;1.05;;;19.40;79.20;;;;;;5047937;28;20029;-64
2021/08/27 08:01:35;;;;;;;3.63;1.23;;;19.40;79.20;;;;;;5047543;28;20087;-66
2021/08/27 08:04:02;;;;;;;5.70;1.20;;;19.30;79.10;;;;;;5046154;28;20051;-65
2021/08/27 08:06:27;;;;;;;3.55;1.02;;;19.40;79.20;;;;;;5047716;28;20028;-65
2021/08/27 08:08:53;;;;;;;3.50;1.15;;;19.30;79.10;;;;;;5047802;28;20029;-64
2021/08/27 08:11:19;;;;;;;4.38;0.93;;;19.30;79.00;;;;;;5047449;28;20823;-66
2021/08/27 08:13:44;;;;;;;5.72;1.30;;;19.30;79.10;;;;;;5047579;28;20041;-64
2021/08/27 08:16:11;;;;;;;4.70;1.30;;;19.40;79.10;;;;;;5047855;28;20354;-65
2021/08/27 08:18:36;;;;;;;6.18;1.30;;;19.40;79.50;;;;;;5046284;28;20132;-66
2021/08/27 08:21:03;;;;;;;6.07;1.10;;;19.40;78.90;;;;;;5047364;28;20037;-67
2021/08/27 08:23:29;;;;;;;5.38;1.50;;;19.40;78.90;;;;;;5045688;28;20508;-65
2021/08/27 08:25:54;;;;;;;4.00;1.20;;;19.40;78.80;;;;;;5046684;28;20187;-65
2021/08/27 08:28:21;;;;;;;4.55;1.20;;;19.40;78.70;;;;;;5046878;28;20104;-65
2021/08/27 08:30:48;;;;;;;4.07;1.08;;;19.50;78.60;;;;;;5045053;28;20552;-64
2021/08/27 08:33:13;;;;;;;5.40;1.55;;;19.50;78.50;;;;;;5046672;28;20049;-66
2021/08/27 08:35:39;;;;;;;4.00;1.48;;;19.50;78.10;;;;;;5047041;28;20445;-65
2021/08/27 08:38:04;;;;;;;5.07;1.60;;;19.50;77.90;;;;;;5046998;28;20032;-66
2021/08/27 08:40:30;;;;;;;6.55;1.33;;;19.60;77.90;;;;;;5046244;28;20040;-64
2021/08/27 08:42:55;;;;;;;4.93;1.50;;;19.60;77.70;;;;;;5046710;28;20033;-66
2021/08/27 08:45:21;;;;;;;6.85;1.40;;;19.70;77.50;;;;;;5046612;28;20040;-66
2021/08/27 08:47:47;;;;;;;5.63;1.38;;;19.70;77.20;;;;;;5045213;28;20021;-65
2021/08/27 08:50:15;;;;;;;7.60;1.42;;;19.80;76.70;;;;;;5044793;28;20023;-65
2021/08/27 08:52:42;;;;;;;8.65;1.98;;;19.80;76.70;;;;;;5032878;28;20410;-68
2021/08/27 08:55:08;;;;;;;10.45;2.25;;;19.80;77.00;;;;;;5026312;28;20040;-65
2021/08/27 08:57:33;;;;;;;7.18;1.42;;;19.80;77.30;;;;;;5031852;28;20411;-64
2021/08/27 08:59:59;;;;;;;14.82;2.30;;;19.80;77.40;;;;;;5038133;28;20091;-65
2021/08/27 09:02:27;;;;;;;7.68;1.73;;;19.80;77.30;;;;;;5032018;28;20464;-65
2021/08/27 09:04:53;;;;;;;7.00;1.75;;;19.80;77.10;;;;;;5035264;28;20021;-68
2021/08/27 09:07:19;;;;;;;8.05;1.35;;;19.90;77.10;;;;;;5038509;28;20045;-66
2021/08/27 09:09:45;;;;;;;7.88;1.90;;;19.90;77.00;;;;;;5024493;28;20026;-67
2021/08/27 09:12:24;;;;;;;10.15;1.60;;;19.90;76.70;;;;;;5029354;28;20113;-65
2021/08/27 09:15:09;;;;;;;10.35;2.03;;;19.90;76.90;;;;;;5026858;28;20594;-65
2021/08/27 09:17:40;;;;;;;6.45;1.60;;;19.90;76.70;;;;;;5033658;28;20565;-65
2021/08/27 09:20:09;;;;;;;5.15;1.40;;;20.00;76.50;;;;;;5024515;28;20443;-67
2021/08/27 09:22:54;;;;;;;7.45;1.45;;;20.00;76.30;;;;;;5024442;28;20571;-66
2021/08/27 09:25:25;;;;;;;8.52;1.73;;;20.00;76.20;;;;;;5027234;28;20391;-65
2021/08/27 09:28:12;;;;;;;6.07;1.87;;;20.10;76.00;;;;;;5032687;28;20494;-65
2021/08/27 09:30:46;;;;;;;11.27;1.60;;;20.00;76.00;;;;;;5023559;28;20033;-66
2021/08/27 09:33:17;;;;;;;8.98;1.90;;;20.00;75.90;;;;;;5024680;28;20223;-67
2021/08/27 09:35:58;;;;;;;7.60;1.65;;;20.10;75.90;;;;;;5025851;28;20060;-65
2021/08/27 09:38:29;;;;;;;7.90;1.90;;;20.10;75.70;;;;;;5025963;28;20030;-68
2021/08/27 09:41:05;;;;;;;6.30;1.60;;;20.00;75.60;;;;;;5024717;28;20406;-65
2021/08/27 09:43:52;;;;;;;5.88;1.40;;;20.10;75.40;;;;;;5024227;28;20076;-65
2021/08/27 09:46:31;;;;;;;10.50;1.60;;;20.10;75.50;;;;;;5025841;28;20060;-65
2021/08/27 09:48:57;;;;;;;8.52;1.70;;;20.10;75.50;;;;;;5026096;28;20044;-66
2021/08/27 09:51:41;;;;;;;7.40;1.40;;;20.10;75.20;;;;;;5031507;28;20677;-66
2021/08/27 09:54:08;;;;;;;6.95;1.70;;;20.10;75.60;;;;;;5031830;28;20101;-65
2021/08/27 09:56:49;;;;;;;5.50;1.50;;;20.10;75.10;;;;;;5024300;28;20402;-64
2021/08/27 09:59:15;;;;;;;10.07;1.63;;;20.10;75.10;;;;;;5025444;28;20042;-65
2021/08/27 10:01:48;;;;;;;6.20;1.50;;;20.10;74.70;;;;;;5024212;28;20033;-66
2021/08/27 10:04:15;;;;;;;6.22;1.70;;;20.10;74.80;;;;;;5025393;28;20053;-65
2021/08/27 10:06:41;;;;;;;8.80;1.75;;;20.10;74.60;;;;;;5024527;28;20026;-65
2021/08/27 10:09:06;;;;;;;6.28;1.55;;;20.20;74.70;;;;;;5025786;28;20028;-64
2021/08/27 10:11:32;;;;;;;6.32;1.42;;;20.10;74.60;;;;;;5025406;28;20056;-65
2021/08/27 10:13:58;;;;;;;11.10;1.58;;;20.20;74.60;;;;;;5025308;28;20057;-65
2021/08/27 10:16:24;;;;;;;7.53;1.50;;;20.20;74.60;;;;;;5025394;28;20053;-67
2021/08/27 10:18:50;;;;;;;6.75;1.60;;;20.10;74.50;;;;;;5025256;28;20041;-66
2021/08/27 10:21:16;;;;;;;8.38;1.73;;;20.20;74.50;;;;;;5025022;28;20076;-66
2021/08/27 10:23:43;;;;;;;8.75;1.60;;;20.20;74.50;;;;;;5025246;28;20053;-66
2021/08/27 10:26:26;;;;;;;9.27;1.67;;;20.20;74.40;;;;;;5025772;28;20914;-65
2021/08/27 10:28:53;;;;;;;5.50;1.83;;;20.20;74.30;;;;;;5023836;28;20030;-65
2021/08/27 10:31:43;;;;;;;18.10;3.55;;;20.20;74.30;;;;;;5027734;28;20029;-65
2021/08/27 10:34:09;;;;;;;30.63;4.65;;;20.20;74.30;;;;;;5043939;28;20136;-68
2021/08/27 10:36:34;;;;;;;28.35;4.70;;;20.20;74.30;;;;;;5031286;28;20038;-65
2021/08/27 10:39:02;;;;;;;33.40;5.85;;;20.20;74.20;;;;;;5023901;28;20025;-67
2021/08/27 10:41:35;;;;;;;38.38;5.95;;;20.30;74.00;;;;;;5025108;28;20030;-65
2021/08/27 10:44:03;;;;;;;27.15;4.15;;;20.30;73.90;;;;;;5025218;28;20026;-66
2021/08/27 10:46:43;;;;;;;42.85;6.85;;;20.30;74.00;;;;;;5024071;28;20022;-65
2021/08/27 10:49:10;;;;;;;26.95;4.88;;;20.30;73.80;;;;;;5025642;28;20104;-65
2021/08/27 10:51:38;;;;;;;33.03;5.90;;;20.30;73.80;;;;;;5026329;28;20040;-66
2021/08/27 10:54:05;;;;;;;37.83;6.03;;;20.30;73.90;;;;;;5034858;28;20553;-65
2021/08/27 10:56:50;;;;;;;32.78;6.57;;;20.30;73.90;;;;;;5038243;28;20122;-64
2021/08/27 10:59:24;;;;;;;44.22;6.53;;;20.30;74.10;;;;;;5038341;28;20029;-65
2021/08/27 11:02:09;;;;;;;37.78;6.57;;;20.30;74.10;;;;;;5036835;28;20020;-64
2021/08/27 11:04:38;;;;;;;44.92;7.93;;;20.30;74.10;;;;;;5028629;28;20107;-65
2021/08/27 11:07:15;;;;;;;33.95;5.80;;;20.30;74.10;;;;;;5027679;28;20048;-66
2021/08/27 11:10:10;;;;;;;37.15;6.60;;;20.30;74.40;;;;;;5029144;28;20022;-68
2021/08/27 11:12:36;;;;;;;38.60;6.60;;;20.30;74.40;;;;;;5028500;28;20116;-65
2021/08/27 11:15:25;;;;;;;31.30;5.82;;;20.30;74.30;;;;;;5028278;28;20030;-64
2021/08/27 11:18:16;;;;;;;30.23;6.55;;;20.30;74.10;;;;;;5028104;28;20033;-66
2021/08/27 11:20:43;;;;;;;27.15;5.50;;;20.30;74.00;;;;;;5026417;28;20025;-66
2021/08/27 11:23:09;;;;;;;24.45;4.80;;;20.30;73.80;;;;;;5028373;28;20466;-68
2021/08/27 11:25:39;;;;;;;28.50;4.80;;;20.40;73.80;;;;;;5035586;28;20724;-65
2021/08/27 11:28:10;;;;;;;29.58;5.35;;;20.40;73.70;;;;;;5035627;28;20068;-65
2021/08/27 11:30:37;;;;;;;31.25;5.97;;;20.40;74.00;;;;;;5026716;28;20040;-65
2021/08/27 11:33:03;;;;;;;28.48;5.05;;;20.30;74.00;;;;;;5026419;28;20037;-65
2021/08/27 11:35:30;;;;;;;23.80;4.70;;;20.40;73.90;;;;;;5026826;28;20465;-65
2021/08/27 11:38:04;;;;;;;26.08;3.92;;;20.30;73.90;;;;;;5027779;28;20491;-65
2021/08/27 11:40:30;;;;;;;24.67;4.10;;;20.30;73.90;;;;;;5027917;28;20443;-66
2021/08/27 11:42:56;;;;;;;27.30;4.60;;;20.30;74.00;;;;;;5027748;28;20391;-65
2021/08/27 11:45:26;;;;;;;22.52;4.78;;;20.30;74.10;;;;;;5027957;28;20028;-65
2021/08/27 11:47:56;;;;;;;21.20;4.03;;;20.30;74.10;;;;;;5028023;28;20451;-65
2021/08/27 11:50:50;;;;;;;24.17;4.15;;;20.30;74.10;;;;;;5026353;28;20116;-65
2021/08/27 11:53:16;;;;;;;23.40;3.70;;;20.30;74.20;;;;;;5027593;28;20017;-65
2021/08/27 11:55:43;;;;;;;25.63;3.85;;;20.30;74.10;;;;;;5026388;28;20040;-66
2021/08/27 11:58:09;;;;;;;22.73;4.30;;;20.30;74.10;;;;;;5035719;28;20067;-65
2021/08/27 12:00:43;;;;;;;17.48;3.85;;;20.40;74.10;;;;;;5036298;28;20116;-67
2021/08/27 12:03:14;;;;;;;23.38;4.00;;;20.40;74.00;;;;;;5031894;28;20033;-64
2021/08/27 12:05:43;;;;;;;28.08;5.25;;;20.50;73.50;;;;;;5039288;28;20025;-64
2021/08/27 12:08:11;;;;;;;19.45;4.03;;;20.50;73.50;;;;;;5045375;28;20272;-68
2021/08/27 12:10:39;;;;;;;31.08;5.05;;;20.60;73.50;;;;;;5045332;28;20330;-65
2021/08/27 12:13:07;;;;;;;18.75;3.65;;;20.60;73.40;;;;;;5046429;28;20499;-65
2021/08/27 12:15:37;;;;;;;22.95;3.72;;;20.60;73.20;;;;;;5047207;28;20031;-65
2021/08/27 12:18:05;;;;;;;23.02;3.88;;;20.60;73.30;;;;;;5047185;28;20078;-65
2021/08/27 12:20:35;;;;;;;24.25;3.65;;;20.60;73.20;;;;;;5045620;28;20025;-65
2021/08/27 12:23:12;;;;;;;19.05;3.67;;;20.60;73.20;;;;;;5045523;28;20621;-65
2021/08/27 12:25:40;;;;;;;21.92;3.95;;;20.70;72.90;;;;;;5047055;28;20051;-68
2021/08/27 12:28:07;;;;;;;19.83;3.58;;;20.60;72.80;;;;;;5045540;28;20025;-65
2021/08/27 12:30:33;;;;;;;23.55;4.22;;;20.70;72.80;;;;;;5046442;28;20024;-66
2021/08/27 12:33:02;;;;;;;17.10;4.07;;;20.60;72.70;;;;;;5045204;28;20036;-65
2021/08/27 12:35:31;;;;;;;20.58;3.58;;;20.60;72.90;;;;;;5046881;28;20132;-66
2021/08/27 12:37:57;;;;;;;14.75;3.25;;;20.60;73.00;;;;;;5045436;28;20035;-67
2021/08/27 12:40:26;;;;;;;17.42;3.72;;;20.60;73.10;;;;;;5046226;28;20406;-67
2021/08/27 12:43:09;;;;;;;19.95;3.75;;;20.50;73.10;;;;;;5046303;28;20868;-66
2021/08/27 12:45:42;;;;;;;18.05;3.42;;;20.50;73.20;;;;;;5046685;28;20041;-66
2021/08/27 12:48:09;;;;;;;16.90;3.20;;;20.50;73.20;;;;;;5046483;28;20017;-67
2021/08/27 12:50:48;;;;;;;17.13;3.20;;;20.50;73.30;;;;;;5044660;28;20025;-65
2021/08/27 12:53:15;;;;;;;13.00;2.70;;;20.50;73.40;;;;;;5046190;28;20021;-66